Allenton, Missouri
Current Conditions -  °F | °C
As of 8:54 AM on Saturday 25 Oct 2014 (Local Time) from KSUS Reporting Station
Haze Haze  
Wind Chill: 58°   Ceiling: Unl
Heat Index: 58°   Visibility: 7mi
Dew Point: 58°   Wind: 0mph
Humidity: 100%   Direction: NA
Pressure: 30.04"   Gusts: NA
Location:  38.5°N, 90.68°W
Report Text: KSUS 251354Z 00000KT 7SM BR CLR 14/14 A3004 RMK AO2 SLP172 T01440144
Loading
Personal Weather Stations






























Interactive Weather Map
Tropical Storm Tracking
New forecast layout! Learn more

10-Day Weather Forecast

Advertisements
Track Severe Weather on mobile